Milan, IN (47031)

1:46 PM EST on February 13, 2016 (GMT -0500)
Sunman | | Change Station
CLOSE
Current Station
Personal Weather Station
Location: Sunman, IN
Elevation: 974 ft
Nearby Weather Stations

Elev 974 ft 39.20 °N, 85.05 °W | Updated 10 minutes ago

Partly Cloudy
Partly Cloudy
17.4 °F
Feels Like 11 °F
N
4.0
Wind Variable Wind from West
Gusts 10.0 mph

Today
High -- | Low -- °F
--% Chance of Precip.
Yesterday
High -- | Low -- °F
Precip. -- in
Pressure 30.57 in
Visibility 9.0 miles
Clouds Few 3200 ft
Scattered Clouds 3700 ft
Windchill 11 °F
Dew Point 4 °F
Humidity 56%
Rainfall 0.00 in
Snow Depth Not available.
7:35 AM 6:14 PM
Waxing Crescent, 33% visible
METAR KCVG 131752Z VRB06KT 9SM -SN FEW032 SCT037 M08/M16 A3053 RMK AO2 SNB44 SLP350 4/001 P0000 60000 T10831161 11078 21117 50000
Pressure 30.57 in
Visibility 9.0 miles
Clouds Few 3200 ft
Scattered Clouds 3700 ft
Windchill 11 °F
Dew Point 4 °F
Humidity 56%
Rainfall 0.00 in
Snow Depth Not available.
7:35 AM 6:14 PM
Waxing Crescent, 33% visible
METAR KCVG 131752Z VRB06KT 9SM -SN FEW032 SCT037 M08/M16 A3053 RMK AO2 SNB44 SLP350 4/001 P0000 60000 T10831161 11078 21117 50000

10-Day Weather Forecast

Almanac

Astronomy

Feb. 13, 2016 Rise Set
Actual Time
Civil Twilight
Nautical Twilight
Astronomical Twilight
Moon
Length of Visible Light
Length of Day
Tomorrow will be .
, % of the Moon is Illuminated

Today's Extremes

State Highs State Lows

Community

WunderPhotos

Upload Photos

1,892,633 photos uploaded!

WunderBlog® & News

Nearby

Air Quality

  Air Quality AQ Index Pollutant
Not available.

Snow Depth

Station Depth Elevation

Earthquake Activity

City Distance Mag. Time & Date
Minimum magnitude displayed is 2.5.

Coastal Water Temperatures

Place Temperature

Stations

Nearby Weather Stations

Station Location Temp. Windchill Dew Point Humidity Wind Precip. Elev Updated Type
                   

Watches & Warnings

There are currently no watches in effect.